createdAt,value
2022-12-23T00:00:29.697Z,7.22
2022-12-23T00:05:37.321Z,7.26
2022-12-23T00:10:40.040Z,7.31
2022-12-23T00:15:41.516Z,7.31
2022-12-23T00:20:43.073Z,7.41
2022-12-23T00:25:44.911Z,7.40
2022-12-23T00:30:50.495Z,7.46
2022-12-23T00:35:52.374Z,7.51
2022-12-23T00:41:12.509Z,7.58
2022-12-23T00:46:14.025Z,7.61
2022-12-23T00:51:15.682Z,7.55
2022-12-23T00:56:17.217Z,7.55
2022-12-23T01:01:37.720Z,7.56
2022-12-23T01:06:39.243Z,7.54
2022-12-23T01:11:41.008Z,7.41
2022-12-23T01:16:42.532Z,7.29
2022-12-23T01:21:44.184Z,7.24
2022-12-23T01:26:45.761Z,7.14
2022-12-23T01:31:47.343Z,7.05
2022-12-23T01:36:48.955Z,7.13
2022-12-23T01:42:09.345Z,7.03
2022-12-23T01:47:14.817Z,6.98
2022-12-23T01:52:16.743Z,6.88
2022-12-23T01:57:18.290Z,6.70
2022-12-23T02:02:40.065Z,6.42
2022-12-23T02:08:01.436Z,6.43
2022-12-23T02:13:26.091Z,6.38
2022-12-23T02:19:10.128Z,6.27
2022-12-23T02:24:39.975Z,6.11
2022-12-23T02:30:18.688Z,6.08
2022-12-23T02:35:56.039Z,6.11
2022-12-23T02:41:14.524Z,6.11
2022-12-23T02:46:22.213Z,6.08
2022-12-23T02:51:26.862Z,6.05
2022-12-23T02:56:32.303Z,6.04
2022-12-23T03:01:35.843Z,6.00
2022-12-23T03:06:41.345Z,6.01
2022-12-23T03:12:24.580Z,6.00
2022-12-23T03:17:59.716Z,5.96
2022-12-23T03:23:08.222Z,5.99
2022-12-23T03:28:32.607Z,6.02
2022-12-23T03:33:37.277Z,6.04
2022-12-23T03:38:43.049Z,6.08
2022-12-23T03:43:51.269Z,6.07
2022-12-23T03:48:57.482Z,6.10
2022-12-23T03:54:05.077Z,6.10
2022-12-23T03:59:21.687Z,6.10
2022-12-23T04:04:30.192Z,6.15
2022-12-23T04:09:32.094Z,6.17
2022-12-23T04:14:35.596Z,6.18
2022-12-23T04:19:37.216Z,6.22
2022-12-23T04:24:39.392Z,6.21
2022-12-23T04:29:41.393Z,6.24
2022-12-23T04:34:42.898Z,6.25
2022-12-23T04:39:44.420Z,6.31
2022-12-23T04:44:45.959Z,6.32
2022-12-23T04:49:47.433Z,6.31
2022-12-23T04:54:48.992Z,6.29
2022-12-23T04:59:50.541Z,6.37
2022-12-23T05:04:52.012Z,6.40
2022-12-23T05:09:53.567Z,6.44
2022-12-23T05:14:55.112Z,6.47
2022-12-23T05:19:56.623Z,6.47
2022-12-23T05:24:58.096Z,6.46
2022-12-23T05:29:59.640Z,6.47
2022-12-23T05:35:01.156Z,6.50
2022-12-23T05:40:02.731Z,6.53
2022-12-23T05:45:04.648Z,6.52
2022-12-23T05:50:06.879Z,6.47
2022-12-23T05:55:09.277Z,6.42
2022-12-23T06:00:11.286Z,6.43
2022-12-23T06:05:13.718Z,6.46
2022-12-23T06:10:16.618Z,6.47
2022-12-23T06:15:18.168Z,6.48
2022-12-23T06:20:21.002Z,6.48
2022-12-23T06:25:22.984Z,6.48
2022-12-23T06:30:24.462Z,6.50
2022-12-23T06:35:25.970Z,6.53
2022-12-23T06:40:29.180Z,6.53
2022-12-23T06:45:30.898Z,6.53
2022-12-23T06:50:32.780Z,6.51
2022-12-23T06:55:34.343Z,6.43
2022-12-23T07:00:36.083Z,6.47
2022-12-23T07:05:37.971Z,6.39
2022-12-23T07:10:39.619Z,6.34
2022-12-23T07:15:41.130Z,6.24
2022-12-23T07:20:42.709Z,6.18
2022-12-23T07:25:44.273Z,6.08
2022-12-23T07:30:45.809Z,5.98
2022-12-23T07:35:47.314Z,5.98
2022-12-23T07:40:49.174Z,5.89
2022-12-23T07:45:57.376Z,5.85
2022-12-23T07:51:02.011Z,5.81
2022-12-23T07:56:03.693Z,5.86
2022-12-23T08:01:08.107Z,5.95
2022-12-23T08:06:15.216Z,5.90
2022-12-23T08:11:17.834Z,5.87
2022-12-23T08:16:19.558Z,5.93
2022-12-23T08:21:21.114Z,5.93
2022-12-23T08:26:24.445Z,5.93
2022-12-23T08:31:28.948Z,5.78
2022-12-23T08:36:32.847Z,5.72
2022-12-23T08:41:39.143Z,5.63
2022-12-23T08:46:42.982Z,5.58
2022-12-23T08:51:47.352Z,5.57
2022-12-23T08:56:48.896Z,5.57
2022-12-23T09:01:50.536Z,5.54
2022-12-23T09:06:52.193Z,5.57
2022-12-23T09:11:53.825Z,5.58
2022-12-23T09:16:55.393Z,5.62
2022-12-23T09:21:56.918Z,5.56
2022-12-23T09:26:58.447Z,5.45
2022-12-23T09:32:00.264Z,5.47
2022-12-23T09:37:02.937Z,5.48
2022-12-23T09:42:28.340Z,5.67
2022-12-23T09:47:31.873Z,5.76
2022-12-23T09:52:57.156Z,5.75
2022-12-23T09:58:01.759Z,5.68
2022-12-23T10:03:22.281Z,5.66
2022-12-23T10:08:44.544Z,5.61
2022-12-23T10:13:50.217Z,5.49
2022-12-23T10:18:57.787Z,5.60
2022-12-23T10:24:04.808Z,5.55
2022-12-23T10:29:20.127Z,5.62
2022-12-23T10:34:46.272Z,5.66
2022-12-23T10:40:13.463Z,5.59
2022-12-23T10:45:39.644Z,5.71
2022-12-23T10:50:54.786Z,5.67
2022-12-23T10:55:57.738Z,5.75
2022-12-23T11:01:06.877Z,5.74
2022-12-23T11:06:12.609Z,5.72
2022-12-23T11:11:14.170Z,5.67
2022-12-23T11:16:25.993Z,5.74
2022-12-23T11:21:29.341Z,5.78
2022-12-23T11:26:30.893Z,5.74
2022-12-23T11:31:35.600Z,5.66
2022-12-23T11:36:38.405Z,5.62
2022-12-23T11:41:44.595Z,5.47
2022-12-23T11:46:46.148Z,5.38
2022-12-23T11:52:01.258Z,5.18
2022-12-23T11:57:07.211Z,5.09
2022-12-23T12:02:26.644Z,4.97
2022-12-23T12:07:30.226Z,5.11
2022-12-23T12:12:32.839Z,5.08
2022-12-23T12:17:45.132Z,4.87
2022-12-23T12:22:51.929Z,5.03
2022-12-23T12:28:02.879Z,5.15
2022-12-23T12:33:14.010Z,5.24
2022-12-23T12:38:42.999Z,5.24
2022-12-23T12:43:56.747Z,5.22
2022-12-23T12:49:11.107Z,5.33
2022-12-23T12:54:31.551Z,5.48
2022-12-23T12:59:36.353Z,5.50
2022-12-23T13:05:03.082Z,5.58
2022-12-23T13:10:10.453Z,5.63
2022-12-23T13:15:31.718Z,5.53
2022-12-23T13:20:42.903Z,5.43
2022-12-23T13:25:50.418Z,5.46
2022-12-23T13:31:11.074Z,5.49
2022-12-23T13:36:21.920Z,5.57
2022-12-23T13:41:46.998Z,5.55
2022-12-23T13:47:13.571Z,5.50
2022-12-23T13:52:53.876Z,5.45
2022-12-23T13:58:18.983Z,5.53
2022-12-23T14:03:25.248Z,5.57
2022-12-23T14:08:41.074Z,5.57
2022-12-23T14:13:51.573Z,5.57
2022-12-23T14:19:28.259Z,5.44
2022-12-23T14:25:03.371Z,5.37
2022-12-23T14:30:21.478Z,5.33
2022-12-23T14:35:25.089Z,5.41
2022-12-23T14:40:38.454Z,5.53
2022-12-23T14:45:43.930Z,5.49
2022-12-23T14:51:08.223Z,5.60
2022-12-23T14:56:23.444Z,5.91
2022-12-23T15:01:37.701Z,6.09
2022-12-23T15:06:46.343Z,6.13
2022-12-23T15:11:48.344Z,6.15
2022-12-23T15:16:50.134Z,6.10
2022-12-23T15:22:13.507Z,6.04
2022-12-23T15:27:27.945Z,5.99
2022-12-23T15:32:30.353Z,6.08
2022-12-23T15:37:32.846Z,6.28
2022-12-23T15:42:35.596Z,6.40
2022-12-23T15:47:42.948Z,6.39
2022-12-23T15:52:46.998Z,6.34
2022-12-23T15:57:50.942Z,6.32
2022-12-23T16:03:04.044Z,6.35
2022-12-23T16:08:28.480Z,6.36
2022-12-23T16:13:32.196Z,6.33
2022-12-23T16:18:46.970Z,6.30
2022-12-23T16:23:52.196Z,6.22
2022-12-23T16:28:59.364Z,6.19
2022-12-23T16:34:06.908Z,6.15
2022-12-23T16:39:21.846Z,6.11
2022-12-23T16:44:23.359Z,6.04
2022-12-23T16:49:32.972Z,6.04
2022-12-23T16:54:35.125Z,6.03
2022-12-23T16:59:37.387Z,6.05
2022-12-23T17:04:38.861Z,6.00
2022-12-23T17:09:40.413Z,6.01
2022-12-23T17:14:41.969Z,6.05
2022-12-23T17:19:43.689Z,6.08
2022-12-23T17:24:45.200Z,6.12
2022-12-23T17:29:46.731Z,6.10
2022-12-23T17:34:48.342Z,6.08
2022-12-23T17:39:50.178Z,6.07
2022-12-23T17:44:51.704Z,6.09
2022-12-23T17:49:53.401Z,5.99
2022-12-23T17:54:56.059Z,6.10
2022-12-23T17:59:57.561Z,6.17
2022-12-23T18:04:59.820Z,6.34
2022-12-23T18:10:01.329Z,6.30
2022-12-23T18:15:05.395Z,6.33
2022-12-23T18:20:15.014Z,6.29
2022-12-23T18:25:19.272Z,6.41
2022-12-23T18:30:22.391Z,6.49
2022-12-23T18:35:27.071Z,6.52
2022-12-23T18:40:32.983Z,6.50
2022-12-23T18:45:38.672Z,6.52
2022-12-23T18:50:41.783Z,6.47
2022-12-23T18:55:43.966Z,6.48
2022-12-23T19:00:46.093Z,6.46
2022-12-23T19:05:48.894Z,6.34
2022-12-23T19:10:51.015Z,6.39
2022-12-23T19:15:52.877Z,6.49
2022-12-23T19:20:54.449Z,6.41
2022-12-23T19:25:56.006Z,6.36
2022-12-23T19:30:57.540Z,6.30
2022-12-23T19:35:59.204Z,6.39
2022-12-23T19:41:00.820Z,6.40
2022-12-23T19:46:05.709Z,6.46
2022-12-23T19:51:10.689Z,6.45
2022-12-23T19:56:15.051Z,6.37
2022-12-23T20:01:19.873Z,6.38
2022-12-23T20:06:31.022Z,6.44
2022-12-23T20:11:35.676Z,6.34
2022-12-23T20:16:39.253Z,6.28
2022-12-23T20:21:40.978Z,6.19
2022-12-23T20:26:42.689Z,6.03
2022-12-23T20:31:44.447Z,6.14
2022-12-23T20:36:46.282Z,6.30
2022-12-23T20:41:47.813Z,6.36
2022-12-23T20:46:49.535Z,6.37
2022-12-23T20:51:51.110Z,6.30
2022-12-23T20:56:52.575Z,6.41
2022-12-23T21:01:54.206Z,6.39
2022-12-23T21:06:55.742Z,6.46
2022-12-23T21:11:57.322Z,6.52
2022-12-23T21:16:58.858Z,6.49
2022-12-23T21:22:00.509Z,6.59
2022-12-23T21:27:02.002Z,6.61
2022-12-23T21:32:03.637Z,6.49
2022-12-23T21:37:05.211Z,6.54
2022-12-23T21:42:06.741Z,6.54
2022-12-23T21:47:08.310Z,6.51
2022-12-23T21:52:10.319Z,6.52
2022-12-23T21:57:11.776Z,6.51
2022-12-23T22:02:16.617Z,6.56
2022-12-23T22:07:18.155Z,6.55
2022-12-23T22:12:19.716Z,6.50
2022-12-23T22:17:21.254Z,6.58
2022-12-23T22:22:22.801Z,6.61
2022-12-23T22:27:24.324Z,6.66
2022-12-23T22:32:25.811Z,6.81
2022-12-23T22:37:27.347Z,6.97
2022-12-23T22:42:28.949Z,7.13
2022-12-23T22:47:30.431Z,7.27
2022-12-23T22:52:32.088Z,7.32
2022-12-23T22:57:33.762Z,7.44
2022-12-23T23:02:35.232Z,7.51
2022-12-23T23:07:36.751Z,7.61
2022-12-23T23:12:38.724Z,7.63
2022-12-23T23:17:40.201Z,7.66
2022-12-23T23:22:41.690Z,7.66
2022-12-23T23:27:43.208Z,7.64
2022-12-23T23:32:44.780Z,7.66
2022-12-23T23:37:46.281Z,7.63
2022-12-23T23:42:48.125Z,7.67
2022-12-23T23:47:49.736Z,7.69
2022-12-23T23:52:51.272Z,7.71
2022-12-23T23:57:52.769Z,7.75
